sensor_id;sensor_type;location;lat;lon;timestamp;pressure;altitude;pressure_sealevel;temperature;humidity
12178;BME280;6152;48.728;9.256;2023-05-19T00:01:43;97539.31;;;12.40;97.07
12178;BME280;6152;48.728;9.256;2023-05-19T00:04:10;97535.88;;;12.39;97.29
12178;BME280;6152;48.728;9.256;2023-05-19T00:06:41;97531.78;;;12.35;97.59
12178;BME280;6152;48.728;9.256;2023-05-19T00:09:10;97541.47;;;12.33;98.25
12178;BME280;6152;48.728;9.256;2023-05-19T00:11:38;97536.16;;;12.35;97.39
12178;BME280;6152;48.728;9.256;2023-05-19T00:14:06;97528.25;;;12.36;96.64
12178;BME280;6152;48.728;9.256;2023-05-19T00:16:33;97533.47;;;12.36;97.90
12178;BME280;6152;48.728;9.256;2023-05-19T00:19:01;97516.03;;;12.23;98.55
12178;BME280;6152;48.728;9.256;2023-05-19T00:21:28;97530.84;;;12.22;98.74
12178;BME280;6152;48.728;9.256;2023-05-19T00:23:54;97535.59;;;12.15;99.27
12178;BME280;6152;48.728;9.256;2023-05-19T00:26:21;97539.31;;;12.11;100.00
12178;BME280;6152;48.728;9.256;2023-05-19T00:28:48;97535.31;;;12.06;100.00
12178;BME280;6152;48.728;9.256;2023-05-19T00:31:15;97529.63;;;11.99;100.00
12178;BME280;6152;48.728;9.256;2023-05-19T00:33:41;97528.19;;;11.94;100.00
12178;BME280;6152;48.728;9.256;2023-05-19T00:36:08;97520.56;;;11.91;100.00
12178;BME280;6152;48.728;9.256;2023-05-19T00:38:35;97520.94;;;11.85;100.00
12178;BME280;6152;48.728;9.256;2023-05-19T00:41:02;97522.78;;;11.83;100.00
12178;BME280;6152;48.728;9.256;2023-05-19T00:43:29;97519.50;;;11.79;100.00
12178;BME280;6152;48.728;9.256;2023-05-19T00:45:56;97532.84;;;11.75;100.00
12178;BME280;6152;48.728;9.256;2023-05-19T00:48:23;97524.34;;;11.71;100.00
12178;BME280;6152;48.728;9.256;2023-05-19T00:50:51;97522.63;;;11.70;100.00
12178;BME280;6152;48.728;9.256;2023-05-19T00:53:18;97525.94;;;11.74;100.00
12178;BME280;6152;48.728;9.256;2023-05-19T00:55:45;97531.06;;;11.75;100.00
12178;BME280;6152;48.728;9.256;2023-05-19T00:58:15;97519.97;;;11.72;100.00
12178;BME280;6152;48.728;9.256;2023-05-19T01:00:41;97522.22;;;11.78;100.00
12178;BME280;6152;48.728;9.256;2023-05-19T01:03:08;97526.66;;;11.76;100.00
12178;BME280;6152;48.728;9.256;2023-05-19T01:05:41;97522.09;;;11.79;100.00
12178;BME280;6152;48.728;9.256;2023-05-19T01:08:09;97521.44;;;11.76;100.00
12178;BME280;6152;48.728;9.256;2023-05-19T01:10:37;97522.41;;;11.75;100.00
12178;BME280;6152;48.728;9.256;2023-05-19T01:13:04;97516.41;;;11.73;100.00
12178;BME280;6152;48.728;9.256;2023-05-19T01:15:39;97512.53;;;11.80;100.00
12178;BME280;6152;48.728;9.256;2023-05-19T01:18:16;97513.00;;;11.72;100.00
12178;BME280;6152;48.728;9.256;2023-05-19T01:21:08;97509.44;;;11.73;100.00
12178;BME280;6152;48.728;9.256;2023-05-19T01:23:48;97522.75;;;11.69;100.00
12178;BME280;6152;48.728;9.256;2023-05-19T01:31:49;97523.50;;;11.71;100.00
12178;BME280;6152;48.728;9.256;2023-05-19T01:34:16;97527.31;;;11.79;100.00
12178;BME280;6152;48.728;9.256;2023-05-19T01:36:45;97529.94;;;11.79;100.00
12178;BME280;6152;48.728;9.256;2023-05-19T01:39:13;97527.44;;;11.78;100.00
12178;BME280;6152;48.728;9.256;2023-05-19T01:41:41;97531.31;;;11.71;100.00
12178;BME280;6152;48.728;9.256;2023-05-19T01:44:08;97526.84;;;11.73;100.00
12178;BME280;6152;48.728;9.256;2023-05-19T01:46:35;97523.50;;;11.71;100.00
12178;BME280;6152;48.728;9.256;2023-05-19T01:49:02;97525.34;;;11.69;100.00
12178;BME280;6152;48.728;9.256;2023-05-19T01:51:28;97528.66;;;11.72;100.00
12178;BME280;6152;48.728;9.256;2023-05-19T01:53:56;97523.84;;;11.64;100.00
12178;BME280;6152;48.728;9.256;2023-05-19T01:56:33;97530.72;;;11.65;100.00
12178;BME280;6152;48.728;9.256;2023-05-19T01:59:14;97522.22;;;11.62;100.00
12178;BME280;6152;48.728;9.256;2023-05-19T02:01:52;97520.28;;;11.65;100.00
12178;BME280;6152;48.728;9.256;2023-05-19T02:04:41;97520.13;;;11.69;100.00
12178;BME280;6152;48.728;9.256;2023-05-19T02:07:41;97519.81;;;11.59;100.00
12178;BME280;6152;48.728;9.256;2023-05-19T02:10:26;97518.97;;;11.58;100.00
12178;BME280;6152;48.728;9.256;2023-05-19T02:12:57;97522.69;;;11.54;100.00
12178;BME280;6152;48.728;9.256;2023-05-19T02:15:29;97519.81;;;11.59;100.00
12178;BME280;6152;48.728;9.256;2023-05-19T02:17:58;97521.19;;;11.50;100.00
12178;BME280;6152;48.728;9.256;2023-05-19T02:20:25;97513.44;;;11.49;100.00
12178;BME280;6152;48.728;9.256;2023-05-19T02:22:51;97526.75;;;11.44;100.00
12178;BME280;6152;48.728;9.256;2023-05-19T02:25:17;97514.47;;;11.46;100.00
12178;BME280;6152;48.728;9.256;2023-05-19T02:27:43;97519.94;;;11.42;100.00
12178;BME280;6152;48.728;9.256;2023-05-19T02:30:09;97527.31;;;11.49;100.00
12178;BME280;6152;48.728;9.256;2023-05-19T02:32:36;97524.91;;;11.46;100.00
12178;BME280;6152;48.728;9.256;2023-05-19T02:35:02;97525.25;;;11.40;100.00
12178;BME280;6152;48.728;9.256;2023-05-19T02:37:28;97524.66;;;11.35;100.00
12178;BME280;6152;48.728;9.256;2023-05-19T02:39:55;97512.41;;;11.37;100.00
12178;BME280;6152;48.728;9.256;2023-05-19T02:42:22;97517.69;;;11.36;100.00
12178;BME280;6152;48.728;9.256;2023-05-19T02:44:48;97514.59;;;11.29;100.00
12178;BME280;6152;48.728;9.256;2023-05-19T02:47:14;97519.06;;;11.27;100.00
12178;BME280;6152;48.728;9.256;2023-05-19T02:49:40;97517.38;;;11.26;100.00
12178;BME280;6152;48.728;9.256;2023-05-19T02:52:07;97514.00;;;11.24;100.00
12178;BME280;6152;48.728;9.256;2023-05-19T02:54:34;97512.41;;;11.22;100.00
12178;BME280;6152;48.728;9.256;2023-05-19T02:57:00;97510.84;;;11.19;100.00
12178;BME280;6152;48.728;9.256;2023-05-19T02:59:26;97505.44;;;11.22;100.00
12178;BME280;6152;48.728;9.256;2023-05-19T03:01:56;97503.75;;;11.21;100.00
12178;BME280;6152;48.728;9.256;2023-05-19T03:04:22;97497.22;;;11.14;100.00
12178;BME280;6152;48.728;9.256;2023-05-19T03:06:48;97500.94;;;11.10;100.00
12178;BME280;6152;48.728;9.256;2023-05-19T03:09:14;97497.75;;;11.05;100.00
12178;BME280;6152;48.728;9.256;2023-05-19T03:11:41;97506.31;;;11.07;100.00
12178;BME280;6152;48.728;9.256;2023-05-19T03:14:07;97496.16;;;11.02;100.00
12178;BME280;6152;48.728;9.256;2023-05-19T03:16:37;97506.66;;;11.01;100.00
12178;BME280;6152;48.728;9.256;2023-05-19T03:19:06;97502.47;;;10.98;100.00
12178;BME280;6152;48.728;9.256;2023-05-19T03:21:33;97500.09;;;10.94;100.00
12178;BME280;6152;48.728;9.256;2023-05-19T03:24:00;97503.66;;;10.93;100.00
12178;BME280;6152;48.728;9.256;2023-05-19T03:26:26;97502.03;;;10.90;100.00
12178;BME280;6152;48.728;9.256;2023-05-19T03:28:54;97502.31;;;10.86;100.00
12178;BME280;6152;48.728;9.256;2023-05-19T03:31:20;97504.16;;;10.84;100.00
12178;BME280;6152;48.728;9.256;2023-05-19T03:33:46;97508.34;;;10.86;100.00
12178;BME280;6152;48.728;9.256;2023-05-19T03:36:12;97507.84;;;10.80;100.00
12178;BME280;6152;48.728;9.256;2023-05-19T03:38:38;97506.19;;;10.79;100.00
12178;BME280;6152;48.728;9.256;2023-05-19T03:41:04;97507.09;;;10.78;100.00
12178;BME280;6152;48.728;9.256;2023-05-19T03:43:30;97507.34;;;10.73;100.00
12178;BME280;6152;48.728;9.256;2023-05-19T03:45:57;97502.47;;;10.67;100.00
12178;BME280;6152;48.728;9.256;2023-05-19T03:48:23;97503.50;;;10.64;100.00
12178;BME280;6152;48.728;9.256;2023-05-19T03:50:49;97502.66;;;10.64;100.00
12178;BME280;6152;48.728;9.256;2023-05-19T03:53:15;97503.81;;;10.58;100.00
12178;BME280;6152;48.728;9.256;2023-05-19T03:55:41;97502.31;;;10.54;100.00
12178;BME280;6152;48.728;9.256;2023-05-19T03:58:09;97506.84;;;10.51;100.00
12178;BME280;6152;48.728;9.256;2023-05-19T04:00:35;97508.78;;;10.47;100.00
12178;BME280;6152;48.728;9.256;2023-05-19T04:03:01;97509.75;;;10.45;100.00
12178;BME280;6152;48.728;9.256;2023-05-19T04:05:27;97508.00;;;10.45;100.00
12178;BME280;6152;48.728;9.256;2023-05-19T04:07:53;97512.78;;;10.37;100.00
12178;BME280;6152;48.728;9.256;2023-05-19T04:10:20;97517.38;;;10.32;100.00
12178;BME280;6152;48.728;9.256;2023-05-19T04:12:46;97525.19;;;10.32;100.00
12178;BME280;6152;48.728;9.256;2023-05-19T04:15:12;97519.06;;;10.33;100.00
12178;BME280;6152;48.728;9.256;2023-05-19T04:17:39;97529.47;;;10.33;100.00
12178;BME280;6152;48.728;9.256;2023-05-19T04:20:05;97523.03;;;10.40;100.00
12178;BME280;6152;48.728;9.256;2023-05-19T04:22:32;97524.78;;;10.40;100.00
12178;BME280;6152;48.728;9.256;2023-05-19T04:24:58;97512.84;;;10.36;100.00
12178;BME280;6152;48.728;9.256;2023-05-19T04:27:25;97517.06;;;10.38;100.00
12178;BME280;6152;48.728;9.256;2023-05-19T04:29:53;97510.09;;;10.39;100.00
12178;BME280;6152;48.728;9.256;2023-05-19T04:32:19;97517.16;;;10.37;100.00
12178;BME280;6152;48.728;9.256;2023-05-19T04:34:45;97515.56;;;10.34;100.00
12178;BME280;6152;48.728;9.256;2023-05-19T04:37:14;97523.25;;;10.36;100.00
12178;BME280;6152;48.728;9.256;2023-05-19T04:39:44;97520.44;;;10.40;100.00
12178;BME280;6152;48.728;9.256;2023-05-19T04:42:11;97522.59;;;10.32;100.00
12178;BME280;6152;48.728;9.256;2023-05-19T04:44:38;97522.75;;;10.29;100.00
12178;BME280;6152;48.728;9.256;2023-05-19T04:47:07;97526.25;;;10.28;100.00
12178;BME280;6152;48.728;9.256;2023-05-19T04:49:34;97525.22;;;10.15;100.00
12178;BME280;6152;48.728;9.256;2023-05-19T04:52:08;97534.06;;;10.11;100.00
12178;BME280;6152;48.728;9.256;2023-05-19T04:54:38;97540.22;;;10.10;100.00
12178;BME280;6152;48.728;9.256;2023-05-19T04:57:05;97539.09;;;9.98;100.00
12178;BME280;6152;48.728;9.256;2023-05-19T04:59:31;97532.72;;;10.04;100.00
12178;BME280;6152;48.728;9.256;2023-05-19T05:01:57;97536.25;;;10.03;100.00
12178;BME280;6152;48.728;9.256;2023-05-19T05:04:23;97533.50;;;10.06;100.00
12178;BME280;6152;48.728;9.256;2023-05-19T05:06:49;97540.00;;;10.14;100.00
12178;BME280;6152;48.728;9.256;2023-05-19T05:09:16;97541.13;;;10.09;100.00
12178;BME280;6152;48.728;9.256;2023-05-19T05:11:43;97539.16;;;10.14;100.00
12178;BME280;6152;48.728;9.256;2023-05-19T05:14:10;97538.97;;;10.17;100.00
12178;BME280;6152;48.728;9.256;2023-05-19T05:16:36;97532.53;;;10.24;100.00
12178;BME280;6152;48.728;9.256;2023-05-19T05:19:03;97540.34;;;10.24;100.00
12178;BME280;6152;48.728;9.256;2023-05-19T05:21:29;97528.28;;;10.23;100.00
12178;BME280;6152;48.728;9.256;2023-05-19T05:23:56;97528.63;;;10.33;100.00
12178;BME280;6152;48.728;9.256;2023-05-19T05:26:26;97524.78;;;10.55;100.00
12178;BME280;6152;48.728;9.256;2023-05-19T05:28:53;97519.41;;;10.58;100.00
12178;BME280;6152;48.728;9.256;2023-05-19T05:31:19;97515.56;;;10.65;100.00
12178;BME280;6152;48.728;9.256;2023-05-19T05:33:46;97521.03;;;10.77;100.00
12178;BME280;6152;48.728;9.256;2023-05-19T05:36:12;97523.72;;;10.91;100.00
12178;BME280;6152;48.728;9.256;2023-05-19T05:38:38;97523.13;;;11.01;100.00
12178;BME280;6152;48.728;9.256;2023-05-19T05:41:05;97521.59;;;11.13;100.00
12178;BME280;6152;48.728;9.256;2023-05-19T05:43:31;97514.34;;;11.18;100.00
12178;BME280;6152;48.728;9.256;2023-05-19T05:45:57;97522.06;;;11.35;100.00
12178;BME280;6152;48.728;9.256;2023-05-19T05:48:23;97530.28;;;11.43;100.00
12178;BME280;6152;48.728;9.256;2023-05-19T05:50:50;97527.13;;;11.52;100.00
12178;BME280;6152;48.728;9.256;2023-05-19T05:53:18;97528.28;;;11.62;100.00
12178;BME280;6152;48.728;9.256;2023-05-19T05:55:47;97533.56;;;11.77;100.00
12178;BME280;6152;48.728;9.256;2023-05-19T05:58:13;97543.63;;;11.83;100.00
12178;BME280;6152;48.728;9.256;2023-05-19T06:00:41;97539.91;;;11.87;100.00
12178;BME280;6152;48.728;9.256;2023-05-19T06:03:13;97533.72;;;11.89;100.00
12178;BME280;6152;48.728;9.256;2023-05-19T06:05:39;97537.72;;;11.95;100.00
12178;BME280;6152;48.728;9.256;2023-05-19T06:08:05;97538.25;;;12.00;100.00
12178;BME280;6152;48.728;9.256;2023-05-19T06:10:32;97534.09;;;12.11;100.00
12178;BME280;6152;48.728;9.256;2023-05-19T06:13:00;97532.53;;;12.23;100.00
12178;BME280;6152;48.728;9.256;2023-05-19T06:15:26;97530.28;;;12.31;100.00
12178;BME280;6152;48.728;9.256;2023-05-19T06:17:52;97530.47;;;12.28;100.00
12178;BME280;6152;48.728;9.256;2023-05-19T06:20:19;97525.06;;;12.31;100.00
12178;BME280;6152;48.728;9.256;2023-05-19T06:22:45;97516.75;;;12.39;100.00
12178;BME280;6152;48.728;9.256;2023-05-19T06:25:11;97521.06;;;12.54;100.00
12178;BME280;6152;48.728;9.256;2023-05-19T06:27:38;97521.69;;;12.57;100.00
12178;BME280;6152;48.728;9.256;2023-05-19T06:30:05;97514.78;;;12.56;100.00
12178;BME280;6152;48.728;9.256;2023-05-19T06:32:33;97520.19;;;12.68;100.00
12178;BME280;6152;48.728;9.256;2023-05-19T06:34:59;97518.56;;;12.79;100.00
12178;BME280;6152;48.728;9.256;2023-05-19T06:37:25;97521.25;;;12.92;100.00
12178;BME280;6152;48.728;9.256;2023-05-19T06:39:52;97519.63;;;13.03;100.00
12178;BME280;6152;48.728;9.256;2023-05-19T06:42:19;97528.50;;;13.15;100.00
12178;BME280;6152;48.728;9.256;2023-05-19T06:44:49;97522.09;;;13.33;100.00
12178;BME280;6152;48.728;9.256;2023-05-19T06:47:16;97521.69;;;13.39;100.00
12178;BME280;6152;48.728;9.256;2023-05-19T06:49:46;97520.06;;;13.63;100.00
12178;BME280;6152;48.728;9.256;2023-05-19T06:52:15;97526.38;;;13.86;100.00
12178;BME280;6152;48.728;9.256;2023-05-19T06:54:41;97525.56;;;13.98;100.00
12178;BME280;6152;48.728;9.256;2023-05-19T06:57:08;97523.28;;;14.19;96.86
12178;BME280;6152;48.728;9.256;2023-05-19T06:59:34;97514.28;;;14.36;97.63
12178;BME280;6152;48.728;9.256;2023-05-19T07:02:02;97520.97;;;14.52;95.59
12178;BME280;6152;48.728;9.256;2023-05-19T07:04:29;97520.22;;;14.63;91.75
12178;BME280;6152;48.728;9.256;2023-05-19T07:06:55;97529.44;;;14.69;91.91
12178;BME280;6152;48.728;9.256;2023-05-19T07:09:21;97522.78;;;14.76;92.62
12178;BME280;6152;48.728;9.256;2023-05-19T07:11:47;97526.66;;;14.83;91.57
12178;BME280;6152;48.728;9.256;2023-05-19T07:14:14;97519.53;;;14.85;87.36
12178;BME280;6152;48.728;9.256;2023-05-19T07:16:40;97536.13;;;14.73;86.63
12178;BME280;6152;48.728;9.256;2023-05-19T07:19:06;97524.72;;;14.48;89.00
12178;BME280;6152;48.728;9.256;2023-05-19T07:21:32;97537.31;;;14.43;92.00
12178;BME280;6152;48.728;9.256;2023-05-19T07:23:58;97521.31;;;14.48;90.58
12178;BME280;6152;48.728;9.256;2023-05-19T07:26:24;97533.97;;;14.41;90.07
12178;BME280;6152;48.728;9.256;2023-05-19T07:28:51;97517.09;;;14.45;92.53
12178;BME280;6152;48.728;9.256;2023-05-19T07:31:17;97517.44;;;14.41;90.62
12178;BME280;6152;48.728;9.256;2023-05-19T07:33:44;97510.28;;;14.43;91.11
12178;BME280;6152;48.728;9.256;2023-05-19T07:36:10;97517.91;;;14.58;90.04
12178;BME280;6152;48.728;9.256;2023-05-19T07:38:36;97515.59;;;14.66;88.98
12178;BME280;6152;48.728;9.256;2023-05-19T07:41:03;97513.53;;;14.46;89.79
12178;BME280;6152;48.728;9.256;2023-05-19T07:43:29;97516.25;;;14.45;89.99
12178;BME280;6152;48.728;9.256;2023-05-19T07:45:55;97516.38;;;14.43;90.84
12178;BME280;6152;48.728;9.256;2023-05-19T07:48:22;97520.75;;;14.30;93.15
12178;BME280;6152;48.728;9.256;2023-05-19T07:50:49;97522.53;;;14.30;92.13
12178;BME280;6152;48.728;9.256;2023-05-19T07:53:16;97520.53;;;14.21;92.19
12178;BME280;6152;48.728;9.256;2023-05-19T07:55:42;97508.50;;;14.18;94.06
12178;BME280;6152;48.728;9.256;2023-05-19T07:58:08;97515.63;;;14.16;96.12
12178;BME280;6152;48.728;9.256;2023-05-19T08:00:34;97522.63;;;14.28;92.45
12178;BME280;6152;48.728;9.256;2023-05-19T08:03:01;97514.91;;;14.27;92.84
12178;BME280;6152;48.728;9.256;2023-05-19T08:05:27;97518.84;;;14.32;94.60
12178;BME280;6152;48.728;9.256;2023-05-19T08:07:55;97515.84;;;14.38;93.92
12178;BME280;6152;48.728;9.256;2023-05-19T08:10:22;97503.47;;;14.53;93.92
12178;BME280;6152;48.728;9.256;2023-05-19T08:12:48;97505.88;;;14.56;88.88
12178;BME280;6152;48.728;9.256;2023-05-19T08:15:14;97500.00;;;14.52;89.59
12178;BME280;6152;48.728;9.256;2023-05-19T08:17:41;97499.56;;;14.58;87.36
12178;BME280;6152;48.728;9.256;2023-05-19T08:20:07;97498.63;;;14.59;87.13
12178;BME280;6152;48.728;9.256;2023-05-19T08:22:35;97501.16;;;14.61;86.71
12178;BME280;6152;48.728;9.256;2023-05-19T08:25:01;97495.78;;;14.62;88.19
12178;BME280;6152;48.728;9.256;2023-05-19T08:27:31;97499.66;;;14.70;86.60
12178;BME280;6152;48.728;9.256;2023-05-19T08:29:58;97496.81;;;14.73;88.15
12178;BME280;6152;48.728;9.256;2023-05-19T08:32:24;97490.94;;;14.82;86.25
12178;BME280;6152;48.728;9.256;2023-05-19T08:34:50;97494.81;;;14.89;86.25
12178;BME280;6152;48.728;9.256;2023-05-19T08:37:16;97495.06;;;14.97;86.72
12178;BME280;6152;48.728;9.256;2023-05-19T08:39:42;97487.09;;;14.98;83.34
12178;BME280;6152;48.728;9.256;2023-05-19T08:42:08;97485.53;;;14.96;81.53
12178;BME280;6152;48.728;9.256;2023-05-19T08:44:36;97486.31;;;14.85;83.64
12178;BME280;6152;48.728;9.256;2023-05-19T08:47:03;97476.00;;;14.95;83.34
12178;BME280;6152;48.728;9.256;2023-05-19T08:49:34;97485.81;;;15.04;83.30
12178;BME280;6152;48.728;9.256;2023-05-19T08:54:53;97482.09;;;15.19;84.09
12178;BME280;6152;48.728;9.256;2023-05-19T08:57:25;97482.75;;;15.34;81.48
12178;BME280;6152;48.728;9.256;2023-05-19T08:59:53;97484.53;;;15.33;79.08
12178;BME280;6152;48.728;9.256;2023-05-19T09:02:21;97484.16;;;15.27;78.02
12178;BME280;6152;48.728;9.256;2023-05-19T09:04:48;97479.69;;;15.16;80.40
12178;BME280;6152;48.728;9.256;2023-05-19T09:07:14;97479.00;;;15.01;82.16
12178;BME280;6152;48.728;9.256;2023-05-19T09:09:41;97482.25;;;15.05;83.82
12178;BME280;6152;48.728;9.256;2023-05-19T09:12:12;97489.28;;;15.04;81.17
12178;BME280;6152;48.728;9.256;2023-05-19T09:14:39;97483.94;;;15.06;80.26
12178;BME280;6152;48.728;9.256;2023-05-19T09:17:05;97477.47;;;14.99;83.51
12178;BME280;6152;48.728;9.256;2023-05-19T09:19:31;97479.69;;;15.16;82.15
12178;BME280;6152;48.728;9.256;2023-05-19T09:22:01;97477.91;;;15.16;80.04
12178;BME280;6152;48.728;9.256;2023-05-19T09:24:32;97477.78;;;15.18;80.03
12178;BME280;6152;48.728;9.256;2023-05-19T09:26:58;97486.41;;;15.31;79.46
12178;BME280;6152;48.728;9.256;2023-05-19T09:29:25;97476.91;;;15.30;79.42
12178;BME280;6152;48.728;9.256;2023-05-19T09:31:52;97483.38;;;15.37;80.87
12178;BME280;6152;48.728;9.256;2023-05-19T09:34:20;97482.00;;;15.32;78.37
12178;BME280;6152;48.728;9.256;2023-05-19T09:36:48;97465.63;;;15.17;78.35
12178;BME280;6152;48.728;9.256;2023-05-19T09:39:19;97476.38;;;15.25;79.48
12178;BME280;6152;48.728;9.256;2023-05-19T09:41:46;97480.69;;;15.26;78.00
12178;BME280;6152;48.728;9.256;2023-05-19T09:44:22;97473.31;;;15.31;81.03
12178;BME280;6152;48.728;9.256;2023-05-19T09:46:52;97486.69;;;15.39;78.91
12178;BME280;6152;48.728;9.256;2023-05-19T09:49:26;97466.81;;;15.13;76.78
12178;BME280;6152;48.728;9.256;2023-05-19T09:52:02;97476.00;;;15.18;77.46
12178;BME280;6152;48.728;9.256;2023-05-19T09:54:29;97473.22;;;15.09;78.55
12178;BME280;6152;48.728;9.256;2023-05-19T09:57:04;97465.84;;;15.14;78.41
12178;BME280;6152;48.728;9.256;2023-05-19T09:59:32;97470.84;;;15.17;79.10
12178;BME280;6152;48.728;9.256;2023-05-19T10:01:59;97466.22;;;15.21;79.39
12178;BME280;6152;48.728;9.256;2023-05-19T10:04:27;97466.63;;;15.27;77.57
12178;BME280;6152;48.728;9.256;2023-05-19T10:06:55;97462.81;;;15.31;76.62
12178;BME280;6152;48.728;9.256;2023-05-19T10:09:28;97465.41;;;15.20;78.39
12178;BME280;6152;48.728;9.256;2023-05-19T10:11:55;97470.59;;;15.09;78.69
12178;BME280;6152;48.728;9.256;2023-05-19T10:14:22;97468.59;;;15.12;77.68
12178;BME280;6152;48.728;9.256;2023-05-19T10:16:54;97458.94;;;15.13;79.86
12178;BME280;6152;48.728;9.256;2023-05-19T10:19:22;97465.84;;;15.14;78.95
12178;BME280;6152;48.728;9.256;2023-05-19T10:21:50;97473.22;;;15.09;80.71
12178;BME280;6152;48.728;9.256;2023-05-19T10:24:16;97465.91;;;15.01;80.59
12178;BME280;6152;48.728;9.256;2023-05-19T10:29:21;97467.97;;;15.09;78.15
12178;BME280;6152;48.728;9.256;2023-05-19T10:31:50;97473.47;;;15.17;80.13
12178;BME280;6152;48.728;9.256;2023-05-19T10:37:15;97470.34;;;15.36;76.60
12178;BME280;6152;48.728;9.256;2023-05-19T10:39:44;97468.06;;;15.31;76.25
12178;BME280;6152;48.728;9.256;2023-05-19T10:42:15;97467.63;;;15.37;77.87
12178;BME280;6152;48.728;9.256;2023-05-19T10:45:18;97458.63;;;15.52;74.08
12178;BME280;6152;48.728;9.256;2023-05-19T10:47:45;97461.69;;;15.46;77.02
12178;BME280;6152;48.728;9.256;2023-05-19T10:50:12;97455.22;;;15.39;75.98
12178;BME280;6152;48.728;9.256;2023-05-19T10:52:39;97463.50;;;15.22;74.98
12178;BME280;6152;48.728;9.256;2023-05-19T10:55:11;97454.13;;;15.07;76.43
12178;BME280;6152;48.728;9.256;2023-05-19T10:57:53;97457.25;;;15.12;77.40
12178;BME280;6152;48.728;9.256;2023-05-19T11:00:29;97449.41;;;15.12;75.80
12178;BME280;6152;48.728;9.256;2023-05-19T11:03:16;97451.50;;;15.07;77.61
12178;BME280;6152;48.728;9.256;2023-05-19T11:05:44;97457.25;;;15.12;76.71
12178;BME280;6152;48.728;9.256;2023-05-19T11:08:11;97455.31;;;15.27;76.00
12178;BME280;6152;48.728;9.256;2023-05-19T11:10:38;97466.63;;;15.27;77.68
12178;BME280;6152;48.728;9.256;2023-05-19T11:13:04;97463.56;;;15.33;75.90
12178;BME280;6152;48.728;9.256;2023-05-19T11:15:34;97460.41;;;15.52;76.28
12178;BME280;6152;48.728;9.256;2023-05-19T11:18:02;97453.31;;;15.41;76.80
12178;BME280;6152;48.728;9.256;2023-05-19T11:20:30;97451.19;;;15.46;77.02
12178;BME280;6152;48.728;9.256;2023-05-19T11:23:16;97454.75;;;15.45;76.91
12178;BME280;6152;48.728;9.256;2023-05-19T11:25:50;97457.34;;;15.34;78.72
12178;BME280;6152;48.728;9.256;2023-05-19T11:28:20;97451.34;;;15.21;77.39
12178;BME280;6152;48.728;9.256;2023-05-19T11:30:52;97455.63;;;15.22;77.79
12178;BME280;6152;48.728;9.256;2023-05-19T11:33:19;97462.81;;;15.31;77.01
12178;BME280;6152;48.728;9.256;2023-05-19T11:35:47;97456.34;;;15.24;75.43
12178;BME280;6152;48.728;9.256;2023-05-19T11:38:17;97462.06;;;15.18;77.90
12178;BME280;6152;48.728;9.256;2023-05-19T11:40:44;97452.19;;;15.22;76.56
12178;BME280;6152;48.728;9.256;2023-05-19T11:43:10;97454.94;;;15.31;75.46
12178;BME280;6152;48.728;9.256;2023-05-19T11:45:36;97463.41;;;15.35;74.06
12178;BME280;6152;48.728;9.256;2023-05-19T11:48:02;97456.91;;;15.40;73.68
12178;BME280;6152;48.728;9.256;2023-05-19T11:50:30;97448.69;;;15.45;74.28
12178;BME280;6152;48.728;9.256;2023-05-19T11:52:58;97449.38;;;15.36;75.85
12178;BME280;6152;48.728;9.256;2023-05-19T11:55:24;97441.59;;;15.23;75.25
12178;BME280;6152;48.728;9.256;2023-05-19T11:58:00;97445.16;;;15.22;79.42
12178;BME280;6152;48.728;9.256;2023-05-19T12:00:33;97441.06;;;15.18;78.25
12178;BME280;6152;48.728;9.256;2023-05-19T12:03:03;97432.03;;;15.22;79.27
12178;BME280;6152;48.728;9.256;2023-05-19T12:05:30;97444.22;;;15.34;77.59
12178;BME280;6152;48.728;9.256;2023-05-19T12:07:56;97444.22;;;15.23;77.76
12178;BME280;6152;48.728;9.256;2023-05-19T12:10:26;97447.66;;;15.24;79.13
12178;BME280;6152;48.728;9.256;2023-05-19T12:12:54;97440.91;;;15.08;75.87
12178;BME280;6152;48.728;9.256;2023-05-19T12:15:21;97434.78;;;14.97;77.15
12178;BME280;6152;48.728;9.256;2023-05-19T12:17:58;97436.63;;;14.84;78.74
12178;BME280;6152;48.728;9.256;2023-05-19T12:20:26;97442.09;;;14.81;81.83
12178;BME280;6152;48.728;9.256;2023-05-19T12:22:54;97439.25;;;14.84;83.23
12178;BME280;6152;48.728;9.256;2023-05-19T12:25:21;97440.69;;;14.88;80.73
12178;BME280;6152;48.728;9.256;2023-05-19T12:27:47;97450.03;;;14.92;81.90
12178;BME280;6152;48.728;9.256;2023-05-19T12:30:15;97448.50;;;15.00;81.60
12178;BME280;6152;48.728;9.256;2023-05-19T12:32:42;97450.34;;;15.11;82.73
12178;BME280;6152;48.728;9.256;2023-05-19T12:35:09;97447.78;;;15.22;79.80
12178;BME280;6152;48.728;9.256;2023-05-19T12:37:39;97451.34;;;15.21;82.57
12178;BME280;6152;48.728;9.256;2023-05-19T12:40:06;97447.06;;;15.31;79.18
12178;BME280;6152;48.728;9.256;2023-05-19T12:42:32;97446.28;;;15.42;78.92
12178;BME280;6152;48.728;9.256;2023-05-19T12:45:02;97448.03;;;15.54;78.52
12178;BME280;6152;48.728;9.256;2023-05-19T12:47:31;97446.75;;;15.71;78.88
12178;BME280;6152;48.728;9.256;2023-05-19T12:50:07;97444.03;;;15.83;77.06
12178;BME280;6152;48.728;9.256;2023-05-19T12:52:44;97451.56;;;15.88;75.75
12178;BME280;6152;48.728;9.256;2023-05-19T12:55:11;97448.97;;;15.99;72.86
12178;BME280;6152;48.728;9.256;2023-05-19T12:57:42;97447.75;;;15.92;74.38
12178;BME280;6152;48.728;9.256;2023-05-19T13:00:17;97446.31;;;15.88;74.45
12178;BME280;6152;48.728;9.256;2023-05-19T13:03:04;97448.22;;;15.75;73.42
12178;BME280;6152;48.728;9.256;2023-05-19T13:05:32;97443.16;;;15.60;77.40
12178;BME280;6152;48.728;9.256;2023-05-19T13:08:00;97444.84;;;15.61;75.09
12178;BME280;6152;48.728;9.256;2023-05-19T13:10:28;97445.09;;;15.46;75.07
12178;BME280;6152;48.728;9.256;2023-05-19T13:12:55;97441.66;;;15.45;76.45
12178;BME280;6152;48.728;9.256;2023-05-19T13:15:22;97445.19;;;15.33;78.94
12178;BME280;6152;48.728;9.256;2023-05-19T13:17:50;97444.97;;;15.36;80.17
12178;BME280;6152;48.728;9.256;2023-05-19T13:20:16;97429.47;;;15.33;78.21
12178;BME280;6152;48.728;9.256;2023-05-19T13:22:42;97434.94;;;15.30;80.45
12178;BME280;6152;48.728;9.256;2023-05-19T13:25:08;97434.34;;;15.38;82.57